Time;durP1;ratioP1;P1;durP2;ratioP2;P2;SDS_P1;SDS_P2;PMS_P1;PMS_P2;Temp;Humidity;BMP_temperature;BMP_pressure;BME280_temperature;BME280_humidity;BME280_pressure;Samples;Min_cycle;Max_cycle;Signal;HPM_P1;HPM_P2
2023/01/13 00:01:57;;;;;;;30.63;18.15;;;;;;;8.29;68.28;101673.72;5001316;28;20058;-78
2023/01/13 00:04:24;;;;;;;26.90;16.23;;;;;;;8.28;68.49;101683.47;4985515;28;20496;-79
2023/01/13 00:06:51;;;;;;;28.63;17.55;;;;;;;7.96;69.04;101642.28;5001776;28;20337;-79
2023/01/13 00:09:17;;;;;;;24.75;15.48;;;;;;;8.00;69.34;101659.66;4983231;28;20396;-79
2023/01/13 00:11:44;;;;;;;23.38;16.08;;;;;;;8.11;69.03;101691.59;4974707;28;20511;-79
2023/01/13 00:14:18;;;;;;;23.15;16.27;;;;;;;7.95;69.58;101675.81;4948281;28;20058;-80
2023/01/13 00:16:45;;;;;;;22.75;15.40;;;;;;;8.01;69.73;101685.16;4985307;28;20057;-78
2023/01/13 00:19:18;;;;;;;27.27;16.15;;;;;;;7.97;69.84;101681.84;4987738;28;20042;-76
2023/01/13 00:21:50;;;;;;;22.13;16.13;;;;;;;7.84;69.97;101652.69;4983397;28;20097;-80
2023/01/13 00:24:20;;;;;;;23.60;15.85;;;;;;;7.95;70.08;101656.44;4996225;28;20419;-80
2023/01/13 00:26:47;;;;;;;22.90;15.00;;;;;;;7.57;69.75;101591.72;5017936;28;20060;-77
2023/01/13 00:29:14;;;;;;;19.63;15.15;;;;;;;7.94;70.08;101642.38;4991660;28;20053;-81
2023/01/13 00:31:48;;;;;;;22.08;14.73;;;;;;;8.01;70.23;101650.78;4992072;28;20280;-79
2023/01/13 00:34:15;;;;;;;23.17;16.23;;;;;;;7.96;70.40;101642.28;4997156;28;20397;-78
2023/01/13 00:36:44;;;;;;;21.38;16.35;;;;;;;7.95;70.49;101643.22;5013619;28;20138;-79
2023/01/13 00:39:14;;;;;;;20.77;15.15;;;;;;;7.95;70.60;101635.31;4968817;28;20145;-78
2023/01/13 00:44:33;;;;;;;24.33;16.65;;;;;;;7.96;70.48;101613.19;4963567;28;20042;-78
2023/01/13 00:47:00;;;;;;;22.95;16.55;;;;;;;8.03;70.90;101636.50;4973145;28;20050;-80
2023/01/13 00:49:28;;;;;;;27.27;16.00;;;;;;;8.06;70.22;101624.91;4984950;28;20358;-81
2023/01/13 00:51:55;;;;;;;21.77;15.10;;;;;;;8.04;70.18;101618.88;4972672;28;20520;-79
2023/01/13 00:54:22;;;;;;;22.63;15.32;;;;;;;8.04;70.09;101616.22;4971525;28;20050;-79
2023/01/13 00:56:58;;;;;;;26.88;15.85;;;;;;;7.91;69.90;101587.03;4955828;28;20135;-79
2023/01/13 00:59:30;;;;;;;21.30;13.45;;;;;;;8.13;69.99;101607.69;4916401;28;20130;-78
2023/01/13 01:02:00;;;;;;;22.80;14.18;;;;;;;8.28;69.13;101619.13;4964439;28;20065;-78
2023/01/13 01:04:27;;;;;;;21.30;14.27;;;;;;;8.06;68.71;101582.59;4961382;28;20050;-78
2023/01/13 01:06:58;;;;;;;21.63;14.30;;;;;;;8.03;69.37;101583.63;4997935;28;20086;-77
2023/01/13 01:09:32;;;;;;;22.58;15.38;;;;;;;7.93;69.14;101580.69;4964740;28;20256;-78
2023/01/13 01:12:01;;;;;;;30.63;15.82;;;;;;;8.10;69.92;101626.41;4977801;28;20058;-78
2023/01/13 01:14:28;;;;;;;22.00;13.98;;;;;;;7.99;69.71;101613.03;4981518;28;20196;-78
2023/01/13 01:16:56;;;;;;;20.38;13.93;;;;;;;8.10;70.14;101637.84;4962625;28;20080;-79
2023/01/13 01:19:23;;;;;;;19.85;14.60;;;;;;;7.93;69.99;101619.50;4978278;28;20140;-77
2023/01/13 01:21:50;;;;;;;21.65;14.52;;;;;;;7.85;69.92;101609.41;5018654;28;20096;-79
2023/01/13 01:24:16;;;;;;;24.40;15.25;;;;;;;8.02;69.78;101649.84;5012862;28;20589;-78
2023/01/13 01:26:43;;;;;;;23.50;15.02;;;;;;;8.02;69.56;101640.09;4988447;28;20046;-78
2023/01/13 01:29:16;;;;;;;22.85;14.65;;;;;;;7.63;69.18;101580.81;5011946;28;20057;-78
2023/01/13 01:31:56;;;;;;;22.52;14.77;;;;;;;8.01;69.25;101638.44;4984837;28;20050;-78
2023/01/13 01:34:23;;;;;;;27.65;15.40;;;;;;;7.97;68.89;101633.41;5015315;28;20077;-77
2023/01/13 01:36:50;;;;;;;25.33;16.63;;;;;;;8.01;69.34;101643.72;4984865;28;20050;-78
2023/01/13 01:39:16;;;;;;;24.15;16.85;;;;;;;8.03;69.00;101649.72;4960547;28;20190;-78
2023/01/13 01:43:57;;;;;;;27.40;17.17;;;;;;;7.85;69.49;101611.22;4963439;28;20404;-78
2023/01/13 01:44:41;;;;;;;28.35;17.63;;;;;;;7.96;70.05;101635.22;4964278;28;20323;-79
2023/01/13 01:47:13;;;;;;;25.08;16.05;;;;;;;7.77;70.07;101595.84;4967747;28;20322;-78
2023/01/13 01:49:47;;;;;;;24.10;16.67;;;;;;;7.77;69.99;101600.25;4994560;28;20057;-79
2023/01/13 01:52:33;;;;;;;27.73;17.45;;;;;;;7.96;70.74;101634.34;4992501;28;20297;-79
2023/01/13 01:55:12;;;;;;;26.98;17.10;;;;;;;7.94;70.51;101637.09;4989702;28;20057;-78
2023/01/13 01:57:45;;;;;;;25.33;16.48;;;;;;;7.78;70.53;101602.81;4985117;28;20061;-78
2023/01/13 02:00:15;;;;;;;23.20;16.42;;;;;;;7.71;70.25;101573.25;4978968;28;20374;-78
2023/01/13 02:02:45;;;;;;;24.67;17.05;;;;;;;8.01;69.92;101611.09;4984299;28;20058;-78
2023/01/13 02:05:14;;;;;;;26.30;16.13;;;;;;;8.13;70.10;101623.56;4978768;28;20518;-78
2023/01/13 02:07:51;;;;;;;24.10;14.57;;;;;;;8.09;70.09;101598.28;4999149;28;20045;-79
2023/01/13 02:10:23;;;;;;;21.33;15.93;;;;;;;8.13;69.57;101615.63;5003606;28;20046;-79
2023/01/13 02:12:51;;;;;;;26.05;15.27;;;;;;;8.07;69.99;101606.28;5009504;28;20064;-79
2023/01/13 02:15:53;;;;;;;24.92;17.15;;;;;;;8.09;70.58;101608.84;5004980;28;20289;-80
2023/01/13 02:18:54;;;;;;;22.43;15.73;;;;;;;8.02;70.82;101599.59;4994013;28;20062;-78
2023/01/13 02:22:04;;;;;;;24.65;16.13;;;;;;;7.78;71.46;101551.75;5001883;28;20359;-78
2023/01/13 02:25:03;;;;;;;26.52;15.70;;;;;;;8.12;70.50;101590.13;4996629;28;20536;-78
2023/01/13 02:27:56;;;;;;;23.50;16.10;;;;;;;7.64;69.77;101497.06;4988670;28;20254;-79
2023/01/13 02:33:33;;;;;;;25.13;16.75;;;;;;;8.14;69.37;101577.66;4995622;28;20046;-79
2023/01/13 02:36:38;;;;;;;26.98;16.85;;;;;;;8.11;69.67;101580.53;4987523;28;20050;-79
2023/01/13 02:39:18;;;;;;;27.02;15.98;;;;;;;8.01;70.20;101582.00;4989380;28;20054;-78
2023/01/13 02:45:12;;;;;;;26.48;16.48;;;;;;;7.91;70.70;101579.09;4999090;28;20614;-78
2023/01/13 02:47:43;;;;;;;27.08;16.75;;;;;;;7.71;70.53;101559.19;4992625;28;20503;-78
2023/01/13 02:50:16;;;;;;;23.20;16.45;;;;;;;7.49;71.15;101528.78;5024017;28;20492;-76
2023/01/13 02:52:49;;;;;;;29.77;16.60;;;;;;;7.74;71.42;101571.38;4996523;28;20053;-78
2023/01/13 02:55:22;;;;;;;27.45;17.23;;;;;;;7.38;71.68;101511.88;4996314;28;20050;-77
2023/01/13 02:57:51;;;;;;;23.13;15.38;;;;;;;7.41;71.49;101509.94;4995882;28;20447;-79
2023/01/13 03:00:19;;;;;;;22.77;16.83;;;;;;;7.71;71.74;101559.19;4993612;28;20053;-79
2023/01/13 03:02:47;;;;;;;21.10;15.88;;;;;;;7.77;72.09;101565.88;4991642;28;20439;-79
2023/01/13 03:05:16;;;;;;;25.05;16.85;;;;;;;7.80;72.32;101555.13;4994426;28;20060;-80
2023/01/13 03:07:42;;;;;;;23.92;16.63;;;;;;;7.79;72.01;101554.28;4989927;28;20046;-79
2023/01/13 03:10:35;;;;;;;23.45;15.48;;;;;;;7.78;72.25;101549.94;4988238;28;20069;-79
2023/01/13 03:13:45;;;;;;;21.67;15.02;;;;;;;7.91;71.76;101537.66;4949922;28;20049;-80
2023/01/13 03:16:43;;;;;;;27.52;15.82;;;;;;;7.39;71.50;101440.47;4991290;28;20077;-78
2023/01/13 03:19:23;;;;;;;21.52;14.68;;;;;;;7.80;71.13;101470.53;4984287;28;20053;-79
2023/01/13 03:22:21;;;;;;;23.38;13.85;;;;;;;7.91;70.92;101474.22;5027365;28;20056;-80
2023/01/13 03:24:54;;;;;;;22.98;15.07;;;;;;;8.15;70.79;101518.53;4989459;28;20060;-79
2023/01/13 03:27:42;;;;;;;23.63;14.88;;;;;;;8.10;69.69;101515.31;4988359;28;20639;-77
2023/01/13 03:30:33;;;;;;;23.52;15.40;;;;;;;8.02;70.17;101501.75;5023714;28;20078;-79
2023/01/13 03:33:14;;;;;;;24.55;14.75;;;;;;;7.78;70.57;101459.22;5023339;28;20057;-77
2023/01/13 03:35:49;;;;;;;22.52;14.25;;;;;;;8.07;70.67;101500.50;4992222;28;20246;-76
2023/01/13 03:38:35;;;;;;;23.17;14.73;;;;;;;8.07;70.44;101483.78;4993238;28;20081;-80
2023/01/13 03:41:20;;;;;;;20.95;13.38;;;;;;;8.03;69.59;101477.84;5022048;28;20532;-79
2023/01/13 03:46:55;;;;;;;21.08;13.50;;;;;;;7.95;70.39;101487.22;4993359;28;20595;-79
2023/01/13 03:49:34;;;;;;;17.83;12.68;;;;;;;8.03;70.85;101471.72;4949320;28;20081;-78
2023/01/13 03:52:06;;;;;;;21.25;14.23;;;;;;;8.17;70.18;101473.47;4945132;28;20046;-78
2023/01/13 03:54:42;;;;;;;20.70;13.68;;;;;;;8.29;70.12;101491.19;5019219;28;20405;-79
2023/01/13 03:57:17;;;;;;;21.33;13.07;;;;;;;8.16;69.56;101445.34;4989746;28;20096;-78
2023/01/13 03:59:51;;;;;;;19.05;12.82;;;;;;;8.30;68.86;101483.16;4942581;28;20468;-79
2023/01/13 04:02:50;;;;;;;20.42;12.00;;;;;;;8.06;69.16;101455.66;4942201;28;20435;-79
2023/01/13 04:05:18;;;;;;;22.88;13.60;;;;;;;8.14;68.76;101474.53;4930463;28;20066;-78
2023/01/13 04:08:06;;;;;;;20.50;12.27;;;;;;;8.15;68.99;101497.38;4942390;28;20054;-78
2023/01/13 04:10:57;;;;;;;16.92;12.48;;;;;;;8.01;69.50;101495.63;4942654;28;20111;-79
2023/01/13 04:13:29;;;;;;;19.80;12.10;;;;;;;8.01;69.89;101510.63;4934825;28;20046;-78
2023/01/13 04:15:55;;;;;;;22.88;13.65;;;;;;;7.19;69.60;101401.25;4933657;28;20449;-78
2023/01/13 04:18:27;;;;;;;18.75;12.18;;;;;;;7.66;70.08;101489.91;4948257;28;20383;-78
2023/01/13 04:20:59;;;;;;;18.08;12.35;;;;;;;6.94;70.11;101384.28;4936907;28;20471;-79
2023/01/13 04:23:27;;;;;;;18.90;12.23;;;;;;;7.66;70.30;101518.97;4942384;28;20473;-80
2023/01/13 04:25:58;;;;;;;18.38;11.77;;;;;;;7.59;71.17;101515.03;4967989;28;20852;-77
2023/01/13 04:28:33;;;;;;;18.90;13.02;;;;;;;7.63;70.96;101521.81;4978066;28;20096;-79
2023/01/13 04:31:09;;;;;;;19.45;12.88;;;;;;;7.23;71.43;101450.28;4978642;28;20065;-79
2023/01/13 04:33:36;;;;;;;17.02;12.25;;;;;;;7.65;71.40;101525.22;4964171;28;20153;-81
2023/01/13 04:36:03;;;;;;;16.23;11.30;;;;;;;7.22;71.15;101459.16;4939933;28;20076;-79
2023/01/13 04:38:34;;;;;;;19.88;12.10;;;;;;;7.53;71.76;101521.53;4940518;28;20081;-79
2023/01/13 04:41:09;;;;;;;21.98;11.63;;;;;;;7.61;71.89;101529.00;4903194;28;20047;-79
2023/01/13 04:43:37;;;;;;;16.30;11.55;;;;;;;7.49;72.00;101502.38;4915918;28;20054;-79
2023/01/13 04:46:06;;;;;;;17.38;12.07;;;;;;;7.51;71.88;101514.66;4921175;28;20425;-80
2023/01/13 04:48:40;;;;;;;23.20;13.05;;;;;;;7.58;72.29;101518.63;4969552;28;20330;-79
2023/01/13 04:51:09;;;;;;;16.95;13.20;;;;;;;7.57;72.07;101525.66;4971870;28;20562;-80
2023/01/13 04:53:36;;;;;;;18.90;12.38;;;;;;;7.25;72.18;101464.25;4951048;28;20053;-79
2023/01/13 04:56:03;;;;;;;21.55;13.27;;;;;;;7.06;72.31;101433.72;4965385;28;20153;-78
2023/01/13 04:58:29;;;;;;;21.80;14.02;;;;;;;7.58;71.96;101513.34;4982887;28;20548;-79
2023/01/13 05:00:56;;;;;;;21.08;14.43;;;;;;;7.67;71.70;101537.41;4944572;28;20578;-79
2023/01/13 05:03:25;;;;;;;18.85;13.85;;;;;;;7.60;71.40;101516.75;4946168;28;20500;-79
2023/01/13 05:06:15;;;;;;;20.35;13.70;;;;;;;7.61;71.18;101529.00;4943675;28;20190;-79
2023/01/13 05:08:44;;;;;;;20.23;14.00;;;;;;;7.63;71.61;101527.09;4950334;28;20054;-80
2023/01/13 05:17:00;;;;;;;21.98;14.02;;;;;;;7.40;70.82;101534.66;4942815;28;20057;-78
2023/01/13 05:19:35;;;;;;;30.95;14.88;;;;;;;7.42;71.03;101551.25;4944291;28;20050;-79
2023/01/13 05:27:40;;;;;;;29.67;20.98;;;;;;;7.34;71.41;101552.66;4934622;28;20049;-78
2023/01/13 05:30:08;;;;;;;29.00;22.17;;;;;;;7.36;71.73;101562.19;4932834;28;20096;-78
2023/01/13 05:32:35;;;;;;;29.13;18.88;;;;;;;7.47;71.76;101588.78;4942198;28;20045;-79
2023/01/13 05:35:03;;;;;;;32.35;24.60;;;;;;;7.04;71.11;101516.59;4956977;28;20432;-77
2023/01/13 05:37:35;;;;;;;34.60;24.48;;;;;;;7.30;70.82;101551.97;4944478;28;20054;-78
2023/01/13 05:43:20;;;;;;;37.78;22.85;;;;;;;7.42;70.95;101582.09;4963540;28;20041;-79
2023/01/13 05:46:01;;;;;;;33.78;23.45;;;;;;;7.35;70.96;101580.75;4946309;28;20053;-79
2023/01/13 05:48:36;;;;;;;28.38;21.75;;;;;;;7.39;71.09;101583.13;4986324;28;20144;-79
2023/01/13 05:51:06;;;;;;;32.75;22.02;;;;;;;6.76;70.77;101475.13;4946593;28;20552;-78
2023/01/13 05:53:35;;;;;;;31.45;23.08;;;;;;;6.80;70.57;101472.22;4952385;28;20599;-78
2023/01/13 05:56:11;;;;;;;31.38;21.80;;;;;;;7.26;70.95;101553.97;4982405;28;20133;-80
2023/01/13 05:58:39;;;;;;;35.10;24.08;;;;;;;7.11;70.50;101546.09;4969261;28;20462;-79
2023/01/13 06:01:07;;;;;;;34.70;22.58;;;;;;;6.74;70.68;101492.84;4963796;28;20048;-78
2023/01/13 06:03:35;;;;;;;39.15;24.65;;;;;;;7.24;71.01;101594.63;4974654;28;20480;-77
2023/01/13 06:06:04;;;;;;;41.40;25.60;;;;;;;7.07;71.08;101575.34;4967672;28;20046;-77
2023/01/13 06:08:33;;;;;;;41.03;26.10;;;;;;;7.11;71.30;101583.91;4974849;28;20056;-79
2023/01/13 06:11:06;;;;;;;38.50;25.60;;;;;;;7.13;71.16;101582.03;4956258;28;20879;-80
2023/01/13 06:13:33;;;;;;;37.15;24.65;;;;;;;7.23;71.06;101598.19;4947854;28;20053;-79
2023/01/13 06:16:00;;;;;;;35.33;24.92;;;;;;;6.71;71.30;101522.91;4948256;28;20305;-77
2023/01/13 06:18:27;;;;;;;33.88;22.98;;;;;;;6.47;71.07;101477.66;4953395;28;20126;-79
2023/01/13 06:20:55;;;;;;;36.80;25.35;;;;;;;7.17;71.91;101603.84;4984308;28;20365;-77
2023/01/13 06:23:22;;;;;;;38.03;26.77;;;;;;;7.17;71.49;101598.56;4965796;28;20080;-77
2023/01/13 06:26:14;;;;;;;34.17;25.95;;;;;;;7.17;71.94;101594.13;4953746;28;20365;-80
2023/01/13 06:28:41;;;;;;;38.67;26.67;;;;;;;7.16;71.71;101603.00;4969470;28;20081;-80
2023/01/13 06:31:09;;;;;;;38.33;26.92;;;;;;;7.13;72.16;101604.97;4999806;28;20626;-80
2023/01/13 06:33:48;;;;;;;36.17;26.85;;;;;;;6.84;71.91;101557.34;4984707;28;20060;-77
2023/01/13 06:36:43;;;;;;;42.97;28.70;;;;;;;6.92;72.46;101559.53;4965746;28;20539;-78
2023/01/13 06:39:17;;;;;;;49.13;31.00;;;;;;;6.93;71.83;101559.44;4962895;28;20046;-80
2023/01/13 06:44:35;;;;;;;46.05;34.58;;;;;;;6.96;71.35;101566.34;4973211;28;20053;-79
2023/01/13 06:47:02;;;;;;;52.15;34.25;;;;;;;6.99;71.82;101567.03;4967304;28;20050;-79
2023/01/13 06:49:32;;;;;;;55.47;35.88;;;;;;;7.12;71.55;101584.78;4978063;28;20053;-79
2023/01/13 06:51:59;;;;;;;59.25;36.95;;;;;;;7.10;71.96;101584.88;4991854;28;20076;-79
2023/01/13 06:54:26;;;;;;;58.72;38.67;;;;;;;6.97;71.38;101570.69;4982899;28;20487;-77
2023/01/13 06:56:53;;;;;;;64.55;40.75;;;;;;;7.04;71.74;101578.16;4952551;28;20045;-79
2023/01/13 06:59:21;;;;;;;56.28;38.45;;;;;;;6.68;70.83;101524.88;4975753;28;20378;-79
2023/01/13 07:01:48;;;;;;;59.10;39.90;;;;;;;7.16;71.21;101589.81;4968370;28;20381;-79
2023/01/13 07:04:20;;;;;;;54.55;39.50;;;;;;;7.23;71.22;101590.25;4956513;28;20707;-80
2023/01/13 07:06:55;;;;;;;51.47;38.78;;;;;;;7.11;70.81;101567.22;4956840;28;20354;-78
2023/01/13 07:09:22;;;;;;;57.25;40.25;;;;;;;6.62;70.70;101487.31;4964182;28;20507;-79
2023/01/13 07:11:50;;;;;;;63.67;39.30;;;;;;;7.28;70.62;101591.72;4958709;28;20562;-80
2023/01/13 07:17:09;;;;;;;61.20;40.20;;;;;;;7.23;70.46;101583.22;4969683;28;20498;-78
2023/01/13 07:19:36;;;;;;;66.38;40.97;;;;;;;7.24;70.57;101587.53;4987626;28;20050;-79
2023/01/13 07:22:06;;;;;;;60.00;41.58;;;;;;;7.37;70.22;101608.78;4959307;28;20484;-79
2023/01/13 07:24:33;;;;;;;58.75;39.63;;;;;;;7.33;70.52;101604.66;4968240;28;20096;-79
2023/01/13 07:27:03;;;;;;;57.13;41.17;;;;;;;7.24;70.32;101584.91;4956807;28;20076;-78
2023/01/13 07:29:42;;;;;;;51.00;38.90;;;;;;;6.87;70.37;101528.16;4960506;28;20136;-78
2023/01/13 07:32:10;;;;;;;56.80;40.75;;;;;;;7.37;70.66;101602.66;4949496;28;20057;-78
2023/01/13 07:34:37;;;;;;;61.35;40.55;;;;;;;7.42;70.74;101598.78;4963188;28;20687;-79
2023/01/13 07:37:08;;;;;;;63.72;45.22;;;;;;;7.46;70.04;101607.41;4934483;28;20164;-78
2023/01/13 07:39:34;;;;;;;62.08;42.30;;;;;;;7.29;70.09;101571.44;4949360;28;20805;-79
2023/01/13 07:44:48;;;;;;;64.35;43.47;;;;;;;7.11;70.01;101538.19;4961121;28;20049;-78
2023/01/13 07:47:15;;;;;;;68.97;43.92;;;;;;;7.03;69.25;101526.28;4974952;28;20049;-79
2023/01/13 07:49:49;;;;;;;73.05;45.67;;;;;;;7.51;69.41;101596.56;4953300;28;20060;-78
2023/01/13 07:52:27;;;;;;;71.03;46.20;;;;;;;7.53;68.98;101594.69;4997209;28;20208;-78
2023/01/13 07:54:54;;;;;;;66.00;45.50;;;;;;;7.55;68.96;101603.34;4960163;28;20507;-78
2023/01/13 07:57:20;;;;;;;68.30;43.78;;;;;;;7.63;68.58;101611.69;4961529;28;20517;-79
2023/01/13 07:59:47;;;;;;;66.70;45.63;;;;;;;7.53;68.28;101595.53;4953351;28;20050;-77
2023/01/13 08:02:14;;;;;;;68.88;46.38;;;;;;;7.60;68.23;101593.38;4957327;28;20854;-79
2023/01/13 08:04:41;;;;;;;61.88;44.08;;;;;;;7.71;68.59;101599.69;4948183;28;20042;-80
2023/01/13 08:07:07;;;;;;;66.20;46.88;;;;;;;7.10;68.11;101483.69;4959061;28;20251;-80
2023/01/13 08:09:34;;;;;;;68.85;45.05;;;;;;;7.80;68.57;101597.44;4963205;28;20054;-79
2023/01/13 08:14:52;;;;;;;67.78;44.42;;;;;;;7.81;68.25;101589.38;4952821;28;20324;-78
2023/01/13 08:17:19;;;;;;;64.32;45.25;;;;;;;7.73;67.30;101570.53;4952476;28;20057;-77
2023/01/13 08:19:50;;;;;;;73.68;46.60;;;;;;;7.68;67.45;101573.44;4984082;28;20251;-80
2023/01/13 08:22:18;;;;;;;64.82;43.90;;;;;;;7.58;67.20;101555.63;4980299;28;20046;-78
2023/01/13 08:24:44;;;;;;;66.25;44.72;;;;;;;7.92;67.52;101618.66;4981075;28;20050;-78
2023/01/13 08:27:11;;;;;;;66.63;44.53;;;;;;;7.76;67.17;101602.03;4977827;28;20053;-79
2023/01/13 08:29:38;;;;;;;61.00;43.35;;;;;;;7.85;67.78;101590.91;4981100;28;20122;-79
2023/01/13 08:32:05;;;;;;;67.75;43.75;;;;;;;7.43;67.74;101515.97;4976963;28;20298;-77
2023/01/13 08:34:32;;;;;;;62.40;42.83;;;;;;;8.00;67.83;101609.41;4982300;28;20100;-77
2023/01/13 08:36:58;;;;;;;66.70;43.35;;;;;;;7.74;67.19;101552.84;4977667;28;20320;-79
2023/01/13 08:39:25;;;;;;;66.53;42.15;;;;;;;8.03;66.97;101606.56;4978061;28;20050;-79
2023/01/13 08:41:55;;;;;;;59.50;41.13;;;;;;;8.00;67.20;101598.84;4953315;28;20054;-79
2023/01/13 08:44:24;;;;;;;57.50;41.15;;;;;;;7.67;67.34;101553.25;4981759;28;20291;-79
2023/01/13 08:46:51;;;;;;;63.72;39.67;;;;;;;8.00;67.22;101591.75;4975664;28;20126;-77
2023/01/13 08:49:17;;;;;;;61.00;40.60;;;;;;;8.12;67.33;101616.59;4982314;28;20502;-79
2023/01/13 08:51:44;;;;;;;60.17;40.92;;;;;;;8.05;67.48;101604.69;5014540;28;20123;-78
2023/01/13 08:54:12;;;;;;;58.17;39.20;;;;;;;8.08;67.22;101601.84;4983192;28;20052;-78
2023/01/13 08:56:41;;;;;;;52.67;37.78;;;;;;;8.09;67.17;101587.69;4978940;28;20190;-80
2023/01/13 08:59:17;;;;;;;60.15;40.22;;;;;;;7.87;67.53;101540.59;4984503;28;20057;-78
2023/01/13 09:01:44;;;;;;;56.25;38.67;;;;;;;8.27;67.55;101607.69;4988624;28;20557;-78
2023/01/13 09:04:20;;;;;;;62.17;41.03;;;;;;;7.46;67.10;101465.56;4989137;28;20120;-79
2023/01/13 09:06:48;;;;;;;56.50;40.53;;;;;;;8.08;67.48;101559.53;4978654;28;20053;-79
2023/01/13 09:09:14;;;;;;;59.85;44.15;;;;;;;8.43;67.72;101612.91;4981976;28;20064;-77
2023/01/13 09:14:33;;;;;;;64.85;44.47;;;;;;;8.70;66.93;101612.91;4963869;28;20057;-78
2023/01/13 09:17:03;;;;;;;68.88;41.95;;;;;;;8.83;67.23;101606.81;4982597;28;20055;-76
2023/01/13 09:19:49;;;;;;;71.70;42.70;;;;;;;8.64;66.49;101573.63;4979919;28;20057;-79
2023/01/13 09:22:18;;;;;;;70.15;44.72;;;;;;;8.83;66.12;101614.75;4980819;28;20080;-78
2023/01/13 09:24:45;;;;;;;56.08;42.92;;;;;;;8.45;66.00;101558.09;4983148;28;20050;-78
2023/01/13 09:27:13;;;;;;;63.67;38.08;;;;;;;8.74;66.51;101589.75;4981750;28;20065;-79
2023/01/13 09:29:40;;;;;;;64.70;41.50;;;;;;;8.93;66.57;101600.81;4988121;28;20065;-77
2023/01/13 09:32:11;;;;;;;66.60;42.47;;;;;;;8.90;65.97;101606.31;4983734;28;20046;-79
2023/01/13 09:37:24;;;;;;;65.93;41.10;;;;;;;9.09;66.59;101598.00;4982446;28;20053;-78
2023/01/13 09:39:50;;;;;;;66.22;44.13;;;;;;;9.32;66.25;101595.59;4981000;28;20085;-80
2023/01/13 09:45:13;;;;;;;66.85;43.80;;;;;;;9.29;66.45;101564.84;4985267;28;20072;-79
2023/01/13 09:48:14;;;;;;;68.80;46.95;;;;;;;9.24;65.46;101579.38;4983048;28;20507;-78
2023/01/13 09:50:46;;;;;;;70.07;45.53;;;;;;;9.32;65.60;101591.16;4982529;28;20058;-79
2023/01/13 09:53:23;;;;;;;64.88;44.28;;;;;;;9.19;65.37;101591.13;5014072;28;20137;-77
2023/01/13 09:55:50;;;;;;;59.35;43.47;;;;;;;9.22;65.24;101594.50;4959104;28;20069;-79
2023/01/13 09:58:18;;;;;;;66.97;44.97;;;;;;;9.10;65.28;101575.88;5005220;28;20054;-79
2023/01/13 10:00:50;;;;;;;68.30;46.00;;;;;;;9.20;65.10;101582.25;5011454;28;20053;-80
2023/01/13 10:03:30;;;;;;;69.85;47.47;;;;;;;8.74;64.86;101502.38;4976182;28;20054;-78
2023/01/13 10:06:05;;;;;;;77.28;46.17;;;;;;;9.20;65.60;101569.00;4977889;28;20119;-78
2023/01/13 10:08:41;;;;;;;69.25;46.40;;;;;;;9.45;65.92;101569.13;4977168;28;20388;-77
2023/01/13 10:14:15;;;;;;;71.78;46.40;;;;;;;9.82;64.72;101562.09;4983081;28;20369;-77
2023/01/13 10:17:17;;;;;;;69.72;46.47;;;;;;;9.79;64.09;101564.97;4981628;28;20503;-78
2023/01/13 10:20:29;;;;;;;64.10;43.08;;;;;;;9.86;63.64;101554.78;4962928;28;20524;-80
2023/01/13 10:23:07;;;;;;;61.80;39.90;;;;;;;9.48;63.11;101506.13;4972425;28;20148;-78
2023/01/13 10:25:43;;;;;;;66.15;45.38;;;;;;;9.53;63.71;101508.47;4983198;28;20054;-79
2023/01/13 10:28:12;;;;;;;60.80;42.10;;;;;;;9.87;64.06;101549.34;4957202;28;20043;-80
2023/01/13 10:30:47;;;;;;;68.28;47.53;;;;;;;9.94;64.53;101547.13;4934357;28;20116;-79
2023/01/13 10:33:29;;;;;;;69.95;48.28;;;;;;;9.97;64.18;101544.25;4947126;28;20060;-80
2023/01/13 10:36:12;;;;;;;66.85;46.65;;;;;;;10.14;63.01;101553.66;4945121;28;20460;-80
2023/01/13 10:38:46;;;;;;;72.13;46.58;;;;;;;9.74;63.29;101490.19;4952214;28;20073;-79
2023/01/13 10:41:25;;;;;;;68.93;47.15;;;;;;;10.21;62.97;101533.66;4951554;28;20355;-80
2023/01/13 10:44:04;;;;;;;80.22;47.47;;;;;;;10.18;63.57;101541.88;4927950;28;20043;-78
2023/01/13 10:46:54;;;;;;;69.25;45.47;;;;;;;10.15;63.30;101523.53;4939163;28;20159;-80
2023/01/13 10:49:39;;;;;;;66.18;44.05;;;;;;;10.18;63.18;101520.63;4926495;28;20050;-78
2023/01/13 10:52:28;;;;;;;64.43;42.85;;;;;;;10.08;62.88;101514.31;4929810;28;20323;-81
2023/01/13 10:54:56;;;;;;;58.15;42.47;;;;;;;10.19;63.03;101522.31;4936003;28;20050;-79
2023/01/13 10:57:36;;;;;;;65.35;43.95;;;;;;;10.14;62.77;101524.47;4931080;28;20411;-79
2023/01/13 11:00:24;;;;;;;66.80;45.08;;;;;;;10.09;63.41;101500.91;4922744;28;20836;-79
2023/01/13 11:03:23;;;;;;;63.13;43.38;;;;;;;10.01;62.97;101493.50;4926957;28;20413;-79
2023/01/13 11:06:02;;;;;;;70.38;43.83;;;;;;;10.19;62.96;101539.06;4937199;28;20068;-81
2023/01/13 11:08:49;;;;;;;62.90;41.55;;;;;;;10.05;63.98;101526.00;4949393;28;20054;-80
2023/01/13 11:11:40;;;;;;;63.30;43.63;;;;;;;9.74;64.16;101458.38;4935549;28;20364;-80
2023/01/13 11:14:32;;;;;;;75.53;46.97;;;;;;;10.16;64.02;101518.06;4934761;28;20064;-79
2023/01/13 11:17:08;;;;;;;64.28;43.92;;;;;;;10.14;64.68;101504.06;4933864;28;20250;-79
2023/01/13 11:19:46;;;;;;;73.18;45.00;;;;;;;10.11;64.70;101525.53;4928471;28;20488;-80
2023/01/13 11:22:20;;;;;;;68.53;45.70;;;;;;;9.97;64.71;101507.94;4956954;28;20046;-80
2023/01/13 11:24:58;;;;;;;68.18;44.30;;;;;;;10.11;64.85;101506.97;4938964;28;20115;-80
2023/01/13 11:27:43;;;;;;;59.58;43.33;;;;;;;10.06;64.68;101488.72;4937852;28;20399;-79
2023/01/13 11:30:21;;;;;;;57.35;41.90;;;;;;;9.74;64.62;101442.47;4936852;28;20112;-79
2023/01/13 11:33:14;;;;;;;58.47;41.17;;;;;;;9.89;64.38;101446.66;4938985;28;20137;-78
2023/01/13 11:36:01;;;;;;;64.18;39.88;;;;;;;10.10;64.03;101448.69;4916535;28;20526;-78
2023/01/13 11:38:54;;;;;;;59.08;38.28;;;;;;;10.12;64.82;101457.38;4927018;28;20116;-80
2023/01/13 11:41:42;;;;;;;59.33;40.72;;;;;;;10.31;64.63;101483.44;4932910;28;20046;-80
2023/01/13 11:44:13;;;;;;;;;;;;;;;9.96;64.71;101418.72;4939484;28;20050;-80
2023/01/13 11:46:42;;;;;;;62.00;38.60;;;;;;;10.34;64.58;101457.56;4958250;28;19921;-80
2023/01/13 11:49:20;;;;;;;55.10;38.80;;;;;;;10.40;63.75;101462.38;4943278;28;20588;-79
2023/01/13 11:52:05;;;;;;;55.13;39.03;;;;;;;10.36;64.14;101466.22;4949173;28;20135;-79
2023/01/13 11:54:50;;;;;;;51.92;34.28;;;;;;;9.87;64.44;101374.31;4936061;28;20812;-80
2023/01/13 11:57:45;;;;;;;56.33;38.58;;;;;;;10.44;64.86;101463.84;4934237;28;20046;-80
2023/01/13 12:00:31;;;;;;;;;;;;;;;10.17;63.65;101397.72;4953272;28;20100;-79
2023/01/13 12:03:14;;;;;;;61.13;39.15;;;;;;;10.00;63.97;101343.28;4935814;28;19921;-78
2023/01/13 12:05:41;;;;;;;58.88;38.72;;;;;;;10.20;63.62;101380.72;4962739;28;20568;-78
2023/01/13 12:08:47;;;;;;;61.10;37.78;;;;;;;10.52;63.65;101433.25;4929654;28;20589;-80
2023/01/13 12:11:33;;;;;;;58.83;39.30;;;;;;;10.42;63.52;101423.31;4933142;28;20803;-78
2023/01/13 12:14:06;;;;;;;63.90;40.00;;;;;;;10.10;64.00;101358.47;4926753;28;20057;-78
2023/01/13 12:16:35;;;;;;;57.25;38.33;;;;;;;10.47;64.36;101437.06;4925363;28;20543;-78
2023/01/13 12:19:33;;;;;;;58.92;40.25;;;;;;;10.52;64.30;101439.38;4922373;28;20053;-78
2023/01/13 12:22:15;;;;;;;74.78;44.15;;;;;;;10.50;64.10;101441.31;4931710;28;20049;-79
2023/01/13 12:25:03;;;;;;;45.90;33.38;;;;;;;10.54;63.84;101447.25;4921100;28;20053;-79
2023/01/13 12:27:48;;;;;;;63.83;42.72;;;;;;;10.33;63.98;101400.09;4921446;28;20058;-80
2023/01/13 12:30:39;;;;;;;64.53;45.85;;;;;;;10.58;63.78;101446.91;4927482;28;20401;-80
2023/01/13 12:33:23;;;;;;;67.53;45.05;;;;;;;10.58;63.69;101444.25;4921643;28;20319;-78
2023/01/13 12:36:18;;;;;;;54.28;35.35;;;;;;;10.52;64.19;101417.31;4933220;28;20460;-78
2023/01/13 12:38:50;;;;;;;77.95;50.63;;;;;;;10.53;63.31;101413.69;4965750;28;20053;-80
2023/01/13 12:44:15;;;;;;;69.95;45.17;;;;;;;10.52;62.34;101438.53;4951068;28;20081;-79